createdAt,value
2022-08-28T00:00:43.611Z,83.80
2022-08-28T00:03:13.474Z,83.80
2022-08-28T00:05:43.175Z,83.70
2022-08-28T00:08:12.205Z,83.40
2022-08-28T00:10:40.587Z,83.20
2022-08-28T00:13:09.284Z,83.20
2022-08-28T00:15:37.995Z,83.20
2022-08-28T00:18:05.971Z,83.20
2022-08-28T00:20:34.768Z,83.30
2022-08-28T00:23:01.842Z,83.30
2022-08-28T00:25:30.394Z,83.40
2022-08-28T00:28:00.152Z,83.40
2022-08-28T00:30:37.315Z,83.30
2022-08-28T00:33:18.180Z,83.20
2022-08-28T00:35:46.143Z,83.10
2022-08-28T00:38:14.885Z,82.60
2022-08-28T00:40:44.605Z,82.20
2022-08-28T00:43:38.615Z,81.90
2022-08-28T00:46:12.025Z,81.70
2022-08-28T00:48:40.173Z,81.70
2022-08-28T00:51:26.439Z,81.60
2022-08-28T00:53:58.609Z,81.40
2022-08-28T00:56:27.573Z,81.20
2022-08-28T00:58:56.843Z,80.80
2022-08-28T01:01:24.644Z,80.70
2022-08-28T01:03:51.611Z,80.40
2022-08-28T01:06:20.653Z,80.10
2022-08-28T01:08:50.610Z,80.00
2022-08-28T01:11:19.566Z,79.80
2022-08-28T01:13:48.635Z,79.60
2022-08-28T01:16:17.505Z,79.40
2022-08-28T01:18:46.207Z,79.10
2022-08-28T01:21:23.804Z,79.00
2022-08-28T01:24:13.954Z,78.80
2022-08-28T01:26:42.119Z,78.70
2022-08-28T01:29:10.245Z,78.80
2022-08-28T01:31:39.439Z,78.80
2022-08-28T01:34:08.070Z,78.60
2022-08-28T01:36:35.538Z,78.90
2022-08-28T01:39:13.016Z,78.80
2022-08-28T01:41:42.214Z,78.90
2022-08-28T01:44:09.639Z,79.10
2022-08-28T01:46:36.962Z,79.20
2022-08-28T01:49:04.843Z,79.30
2022-08-28T01:51:35.087Z,79.30
2022-08-28T01:54:06.181Z,79.50
2022-08-28T01:56:34.968Z,79.70
2022-08-28T01:59:05.654Z,80.00
2022-08-28T02:01:33.499Z,80.20
2022-08-28T02:04:00.974Z,80.20
2022-08-28T02:06:27.990Z,80.10
2022-08-28T02:08:55.593Z,79.90
2022-08-28T02:11:24.289Z,79.90
2022-08-28T02:13:52.816Z,79.70
2022-08-28T02:16:21.394Z,79.60
2022-08-28T02:18:48.995Z,79.50
2022-08-28T02:21:16.142Z,79.40
2022-08-28T02:23:44.642Z,79.50
2022-08-28T02:26:12.628Z,79.80
2022-08-28T02:28:40.237Z,80.00
2022-08-28T02:31:09.365Z,80.20
2022-08-28T02:33:41.830Z,80.50
2022-08-28T02:36:11.518Z,80.60
2022-08-28T02:38:39.035Z,80.80
2022-08-28T02:41:07.052Z,81.10
2022-08-28T02:43:34.519Z,81.50
2022-08-28T02:46:01.720Z,81.80
2022-08-28T02:48:31.758Z,82.00
2022-08-28T02:51:04.140Z,82.30
2022-08-28T02:53:31.542Z,82.50
2022-08-28T02:56:00.553Z,82.80
2022-08-28T02:58:27.517Z,83.40
2022-08-28T03:00:55.534Z,83.40
2022-08-28T03:03:22.736Z,83.40
2022-08-28T03:05:49.931Z,83.30
2022-08-28T03:08:16.877Z,83.30
2022-08-28T03:10:43.890Z,83.20
2022-08-28T03:13:26.466Z,83.40
2022-08-28T03:15:55.754Z,83.40
2022-08-28T03:18:24.472Z,83.70
2022-08-28T03:20:52.940Z,84.10
2022-08-28T03:23:29.207Z,84.40
2022-08-28T03:26:06.346Z,84.60
2022-08-28T03:28:39.875Z,84.90
2022-08-28T03:31:08.806Z,84.90
2022-08-28T03:33:36.693Z,85.00
2022-08-28T03:36:04.645Z,85.30
2022-08-28T03:38:32.184Z,85.80
2022-08-28T03:40:59.469Z,86.40
2022-08-28T03:43:27.382Z,86.90
2022-08-28T03:45:59.042Z,87.30
2022-08-28T03:48:28.568Z,87.60
2022-08-28T03:50:55.817Z,87.90
2022-08-28T03:53:24.788Z,87.70
2022-08-28T03:55:52.649Z,87.40
2022-08-28T03:58:19.868Z,87.40
2022-08-28T04:00:47.415Z,87.40
2022-08-28T04:03:14.859Z,87.20
2022-08-28T04:05:43.748Z,87.00
2022-08-28T04:08:15.819Z,87.20
2022-08-28T04:10:44.288Z,87.30
2022-08-28T04:13:12.254Z,87.30
2022-08-28T04:15:39.493Z,87.30
2022-08-28T04:18:06.543Z,87.40
2022-08-28T04:20:33.768Z,87.30
2022-08-28T04:23:03.867Z,87.40
2022-08-28T04:25:31.400Z,87.30
2022-08-28T04:27:59.190Z,87.20
2022-08-28T04:30:26.185Z,87.10
2022-08-28T04:32:53.131Z,87.20
2022-08-28T04:35:20.163Z,87.10
2022-08-28T04:37:47.104Z,87.10
2022-08-28T04:40:15.990Z,87.10
2022-08-28T04:42:45.014Z,87.30
2022-08-28T04:45:12.394Z,87.60
2022-08-28T04:47:40.103Z,87.60
2022-08-28T04:50:08.218Z,87.40
2022-08-28T04:52:35.199Z,87.30
2022-08-28T04:55:02.366Z,87.20
2022-08-28T04:57:32.233Z,87.10
2022-08-28T05:00:03.723Z,86.80
2022-08-28T05:02:32.100Z,86.70
2022-08-28T05:04:59.964Z,86.90
2022-08-28T05:07:26.898Z,87.10
2022-08-28T05:09:54.660Z,87.20
2022-08-28T05:12:22.201Z,87.20
2022-08-28T05:14:49.791Z,86.80
2022-08-28T05:17:16.943Z,86.40
2022-08-28T05:19:43.911Z,86.00
2022-08-28T05:22:11.261Z,85.60
2022-08-28T05:24:40.215Z,85.40
2022-08-28T05:27:08.696Z,85.20
2022-08-28T05:29:35.991Z,84.80
2022-08-28T05:32:03.630Z,84.10
2022-08-28T05:34:31.749Z,83.40
2022-08-28T05:36:58.780Z,82.40
2022-08-28T05:39:25.789Z,82.20
2022-08-28T05:41:52.731Z,81.20
2022-08-28T05:44:20.953Z,79.70
2022-08-28T05:46:48.553Z,76.80
2022-08-28T05:49:18.220Z,73.40
2022-08-28T05:51:45.815Z,70.80
2022-08-28T05:54:13.196Z,68.20
2022-08-28T05:56:41.199Z,66.40
2022-08-28T05:59:08.896Z,64.40
2022-08-28T06:01:40.448Z,62.50
2022-08-28T06:04:10.842Z,60.90
2022-08-28T06:06:40.295Z,59.80
2022-08-28T06:09:13.591Z,58.90
2022-08-28T06:11:44.603Z,58.60
2022-08-28T06:14:16.571Z,58.20
2022-08-28T06:16:52.924Z,56.50
2022-08-28T06:19:22.869Z,55.60
2022-08-28T06:21:52.526Z,55.70
2022-08-28T06:24:19.583Z,54.80
2022-08-28T06:26:46.509Z,55.60
2022-08-28T06:29:21.099Z,57.10
2022-08-28T06:31:58.134Z,58.10
2022-08-28T06:34:25.726Z,57.10
2022-08-28T06:36:54.213Z,56.20
2022-08-28T06:39:22.298Z,54.90
2022-08-28T06:41:49.381Z,54.00
2022-08-28T06:44:19.881Z,53.20
2022-08-28T06:46:49.166Z,52.00
2022-08-28T06:49:16.690Z,51.70
2022-08-28T06:51:43.891Z,51.10
2022-08-28T06:54:11.277Z,50.70
2022-08-28T06:56:38.563Z,50.00
2022-08-28T06:59:05.626Z,49.40
2022-08-28T07:01:35.592Z,48.80
2022-08-28T07:04:06.362Z,47.90
2022-08-28T07:06:36.119Z,46.70
2022-08-28T07:09:06.219Z,46.00
2022-08-28T07:11:34.813Z,44.90
2022-08-28T07:14:02.972Z,44.40
2022-08-28T07:16:32.671Z,43.70
2022-08-28T07:19:04.380Z,42.60
2022-08-28T07:21:38.321Z,42.40
2022-08-28T07:24:06.591Z,41.70
2022-08-28T07:26:33.762Z,41.50
2022-08-28T07:29:09.991Z,40.60
2022-08-28T07:31:40.769Z,39.70
2022-08-28T07:34:09.613Z,40.30
2022-08-28T07:36:37.301Z,40.00
2022-08-28T07:39:05.435Z,40.10
2022-08-28T07:41:35.420Z,40.60
2022-08-28T07:44:21.532Z,41.50
2022-08-28T07:46:48.528Z,43.10
2022-08-28T07:49:17.200Z,44.40
2022-08-28T07:51:45.679Z,43.30
2022-08-28T07:54:17.641Z,42.20
2022-08-28T07:56:47.242Z,41.50
2022-08-28T07:59:16.954Z,41.00
2022-08-28T08:01:47.032Z,41.00
2022-08-28T08:04:16.171Z,40.90
2022-08-28T08:06:44.069Z,41.10
2022-08-28T08:09:14.288Z,41.60
2022-08-28T08:11:41.375Z,40.90
2022-08-28T08:14:08.483Z,40.00
2022-08-28T08:16:39.005Z,39.40
2022-08-28T08:19:09.787Z,39.00
2022-08-28T08:21:37.207Z,39.00
2022-08-28T08:24:04.459Z,37.90
2022-08-28T08:26:32.311Z,37.30
2022-08-28T08:29:00.951Z,37.50
2022-08-28T08:31:32.470Z,37.00
2022-08-28T08:34:02.056Z,36.70
2022-08-28T08:36:30.055Z,35.90
2022-08-28T08:38:59.267Z,36.10
2022-08-28T08:41:48.764Z,36.50
2022-08-28T08:44:33.494Z,36.40
2022-08-28T08:47:17.217Z,36.30
2022-08-28T08:49:57.202Z,36.60
2022-08-28T08:52:37.954Z,35.80
2022-08-28T08:55:28.234Z,35.40
2022-08-28T08:58:05.578Z,35.30
2022-08-28T09:00:53.485Z,35.10
2022-08-28T09:03:30.103Z,35.10
2022-08-28T09:06:04.310Z,35.20
2022-08-28T09:08:31.315Z,35.40
2022-08-28T09:11:08.186Z,35.30
2022-08-28T09:14:01.067Z,34.80
2022-08-28T09:16:33.065Z,34.40
2022-08-28T09:19:02.261Z,34.40
2022-08-28T09:21:32.560Z,34.40
2022-08-28T09:24:05.809Z,34.40
2022-08-28T09:26:33.596Z,34.40
2022-08-28T09:29:17.655Z,33.40
2022-08-28T09:31:45.128Z,32.60
2022-08-28T09:34:26.611Z,32.80
2022-08-28T09:36:55.127Z,32.60
2022-08-28T09:39:29.319Z,32.70
2022-08-28T09:42:40.062Z,32.60
2022-08-28T09:45:15.051Z,32.20
2022-08-28T09:47:51.028Z,32.00
2022-08-28T09:50:38.816Z,32.00
2022-08-28T09:53:11.798Z,32.50
2022-08-28T09:56:08.484Z,33.20
2022-08-28T09:58:46.212Z,33.50
2022-08-28T10:01:45.220Z,33.10
2022-08-28T10:04:27.389Z,32.40
2022-08-28T10:07:35.010Z,32.00
2022-08-28T10:10:29.856Z,32.00
2022-08-28T10:13:10.239Z,32.30
2022-08-28T10:16:08.949Z,32.30
2022-08-28T10:18:48.016Z,32.50
2022-08-28T10:21:39.614Z,32.20
2022-08-28T10:24:12.243Z,32.40
2022-08-28T10:26:57.332Z,32.10
2022-08-28T10:29:36.241Z,31.80
2022-08-28T10:32:40.079Z,32.10
2022-08-28T10:35:32.843Z,32.30
2022-08-28T10:38:05.787Z,32.80
2022-08-28T10:40:38.913Z,32.40
2022-08-28T10:43:12.010Z,32.00
2022-08-28T10:45:39.580Z,31.50
2022-08-28T10:48:19.877Z,32.30
2022-08-28T10:50:55.094Z,32.30
2022-08-28T10:53:30.501Z,33.40
2022-08-28T10:56:03.242Z,34.90
2022-08-28T10:58:32.066Z,35.70
2022-08-28T11:01:07.000Z,35.40
2022-08-28T11:03:46.414Z,34.60
2022-08-28T11:06:22.744Z,33.80
2022-08-28T11:08:55.943Z,32.50
2022-08-28T11:11:43.092Z,32.20
2022-08-28T11:14:22.883Z,31.80
2022-08-28T11:16:50.295Z,31.80
2022-08-28T11:19:38.704Z,32.10
2022-08-28T11:22:21.509Z,32.70
2022-08-28T11:25:04.454Z,32.30
2022-08-28T11:27:37.909Z,32.00
2022-08-28T11:30:11.199Z,31.70
2022-08-28T11:32:57.170Z,31.50
2022-08-28T11:35:29.951Z,31.70
2022-08-28T11:37:58.515Z,32.50
2022-08-28T11:40:28.278Z,32.60
2022-08-28T11:43:16.927Z,32.90
2022-08-28T11:45:46.537Z,32.80
2022-08-28T11:48:23.439Z,33.00
2022-08-28T11:50:53.352Z,32.70
2022-08-28T11:53:33.735Z,32.20
2022-08-28T11:56:06.697Z,33.40
2022-08-28T11:58:57.215Z,34.10
2022-08-28T12:01:37.570Z,34.80
2022-08-28T12:04:14.324Z,34.80
2022-08-28T12:06:54.764Z,34.20
2022-08-28T12:09:43.961Z,33.00
2022-08-28T12:12:13.540Z,32.20
2022-08-28T12:14:40.851Z,32.20
2022-08-28T12:17:20.304Z,31.70
2022-08-28T12:19:59.815Z,31.40
2022-08-28T12:22:44.919Z,31.10
2022-08-28T12:25:22.210Z,31.00
2022-08-28T12:27:49.728Z,32.00
2022-08-28T12:30:28.263Z,33.80
2022-08-28T12:33:07.998Z,34.50
2022-08-28T12:35:35.455Z,34.70
2022-08-28T12:38:05.956Z,34.30
2022-08-28T12:40:56.208Z,33.70
2022-08-28T12:43:28.934Z,32.80
2022-08-28T12:46:00.891Z,32.30
2022-08-28T12:48:52.120Z,32.20
2022-08-28T12:51:26.105Z,33.20
2022-08-28T12:53:56.962Z,33.00
2022-08-28T12:56:26.248Z,32.80
2022-08-28T12:58:53.288Z,33.50
2022-08-28T13:01:32.197Z,34.10
2022-08-28T13:04:05.517Z,33.80
2022-08-28T13:06:38.818Z,33.50
2022-08-28T13:09:18.644Z,33.80
2022-08-28T13:11:51.424Z,33.00
2022-08-28T13:14:46.137Z,33.50
2022-08-28T13:17:15.409Z,33.30
2022-08-28T13:19:42.570Z,33.10
2022-08-28T13:22:34.056Z,32.60
2022-08-28T13:25:02.912Z,33.70
2022-08-28T13:27:30.107Z,33.70
2022-08-28T13:30:19.945Z,34.20
2022-08-28T13:33:02.051Z,34.20
2022-08-28T13:35:35.149Z,34.10
2022-08-28T13:38:06.076Z,34.10
2022-08-28T13:43:41.910Z,36.30
2022-08-28T13:46:08.851Z,36.20
2022-08-28T13:48:35.877Z,36.10
2022-08-28T13:51:07.593Z,36.70
2022-08-28T13:53:38.227Z,36.80
2022-08-28T13:56:05.303Z,36.10
2022-08-28T13:58:32.357Z,36.30
2022-08-28T14:00:59.915Z,36.20
2022-08-28T14:03:36.014Z,38.00
2022-08-28T14:06:11.190Z,38.80
2022-08-28T14:08:39.865Z,40.20
2022-08-28T14:11:07.386Z,40.70
2022-08-28T14:13:34.432Z,41.60
2022-08-28T14:16:05.481Z,42.20
2022-08-28T14:18:32.600Z,42.50
2022-08-28T14:20:59.608Z,42.50
2022-08-28T14:23:26.624Z,43.00
2022-08-28T14:25:53.591Z,43.30
2022-08-28T14:28:20.627Z,43.40
2022-08-28T14:30:50.919Z,43.50
2022-08-28T14:33:20.493Z,43.40
2022-08-28T14:35:49.095Z,43.50
2022-08-28T14:38:16.110Z,43.60
2022-08-28T14:40:44.515Z,43.90
2022-08-28T14:43:13.266Z,44.30
2022-08-28T14:45:45.989Z,43.90
2022-08-28T14:48:14.345Z,44.10
2022-08-28T14:50:43.212Z,43.50
2022-08-28T14:53:11.019Z,43.30
2022-08-28T14:55:43.874Z,43.00
2022-08-28T14:58:11.431Z,43.70
2022-08-28T15:00:46.093Z,42.60
2022-08-28T15:03:14.029Z,42.40
2022-08-28T15:05:41.807Z,42.70
2022-08-28T15:08:10.688Z,42.30
2022-08-28T15:10:39.146Z,42.60
2022-08-28T15:13:09.187Z,43.00
2022-08-28T15:15:41.327Z,43.30
2022-08-28T15:18:10.411Z,43.90
2022-08-28T15:20:39.660Z,44.80
2022-08-28T15:23:06.767Z,45.50
2022-08-28T15:25:33.833Z,45.70
2022-08-28T15:28:00.912Z,46.20
2022-08-28T15:30:27.920Z,46.70
2022-08-28T15:32:54.955Z,47.40
2022-08-28T15:35:21.971Z,47.60
2022-08-28T15:37:49.328Z,48.10
2022-08-28T15:40:34.901Z,48.40
2022-08-28T15:43:02.099Z,48.80
2022-08-28T15:45:29.121Z,49.40
2022-08-28T15:47:58.000Z,50.00
2022-08-28T15:50:24.968Z,50.00
2022-08-28T15:52:53.538Z,49.90
2022-08-28T15:55:20.568Z,50.10
2022-08-28T15:57:47.688Z,50.40
2022-08-28T16:00:15.382Z,50.70
2022-08-28T16:02:44.461Z,51.40
2022-08-28T16:05:11.656Z,51.80
2022-08-28T16:07:38.761Z,52.30
2022-08-28T16:10:07.676Z,52.70
2022-08-28T16:12:35.702Z,53.10
2022-08-28T16:15:02.835Z,53.30
2022-08-28T16:17:29.760Z,53.50
2022-08-28T16:19:57.401Z,53.60
2022-08-28T16:22:24.611Z,53.70
2022-08-28T16:24:51.667Z,53.60
2022-08-28T16:27:18.613Z,53.90
2022-08-28T16:29:45.898Z,54.10
2022-08-28T16:32:12.914Z,54.00
2022-08-28T16:34:40.038Z,54.10
2022-08-28T16:37:07.911Z,54.50
2022-08-28T16:39:36.169Z,54.70
2022-08-28T16:42:03.340Z,55.10
2022-08-28T16:44:30.317Z,55.20
2022-08-28T16:46:57.654Z,55.30
2022-08-28T16:49:24.763Z,56.20
2022-08-28T16:51:51.735Z,56.00
2022-08-28T16:54:19.319Z,55.80
2022-08-28T16:56:46.767Z,56.50
2022-08-28T16:59:17.454Z,56.40
2022-08-28T17:01:44.700Z,56.60
2022-08-28T17:04:12.365Z,56.90
2022-08-28T17:06:40.134Z,57.30
2022-08-28T17:09:07.271Z,57.60
2022-08-28T17:11:34.360Z,57.70
2022-08-28T17:14:01.635Z,58.00
2022-08-28T17:16:32.057Z,58.50
2022-08-28T17:18:59.840Z,58.80
2022-08-28T17:21:45.680Z,59.10
2022-08-28T17:24:13.653Z,59.30
2022-08-28T17:26:41.886Z,59.50
2022-08-28T17:29:09.413Z,60.00
2022-08-28T17:31:36.628Z,60.40
2022-08-28T17:34:05.645Z,60.80
2022-08-28T17:36:34.330Z,61.00
2022-08-28T17:39:11.666Z,61.60
2022-08-28T17:41:40.846Z,62.00
2022-08-28T17:44:08.505Z,62.60
2022-08-28T17:46:37.967Z,63.10
2022-08-28T17:49:07.004Z,63.70
2022-08-28T17:51:43.430Z,64.10
2022-08-28T17:54:18.381Z,64.50
2022-08-28T17:56:46.350Z,65.00
2022-08-28T17:59:14.540Z,65.20
2022-08-28T18:01:42.420Z,65.90
2022-08-28T18:04:09.597Z,66.50
2022-08-28T18:06:37.236Z,66.80
2022-08-28T18:09:05.793Z,67.10
2022-08-28T18:11:33.063Z,67.20
2022-08-28T18:14:00.816Z,67.50
2022-08-28T18:16:31.508Z,67.70
2022-08-28T18:19:00.038Z,67.90
2022-08-28T18:21:27.417Z,68.20
2022-08-28T18:23:54.467Z,68.60
2022-08-28T18:26:21.489Z,68.70
2022-08-28T18:28:48.755Z,68.90
2022-08-28T18:31:15.924Z,69.10
2022-08-28T18:33:42.920Z,69.50
2022-08-28T18:36:11.929Z,69.70
2022-08-28T18:38:39.695Z,69.80
2022-08-28T18:41:08.591Z,70.00
2022-08-28T18:43:36.558Z,70.20
2022-08-28T18:46:05.001Z,70.30
2022-08-28T18:48:32.335Z,70.40
2022-08-28T18:50:59.343Z,70.40
2022-08-28T18:53:27.963Z,70.60
2022-08-28T18:55:56.130Z,70.70
2022-08-28T18:58:27.468Z,70.90
2022-08-28T19:00:54.799Z,71.00
2022-08-28T19:03:22.745Z,71.00
2022-08-28T19:05:51.093Z,71.10
2022-08-28T19:08:18.088Z,71.10
2022-08-28T19:10:45.302Z,71.40
2022-08-28T19:13:12.398Z,71.40
2022-08-28T19:15:39.807Z,71.40
2022-08-28T19:18:07.546Z,72.30
2022-08-28T19:20:34.853Z,71.50
2022-08-28T19:23:01.967Z,71.70
2022-08-28T19:25:30.765Z,71.90
2022-08-28T19:27:59.758Z,72.00
2022-08-28T19:30:29.106Z,72.00
2022-08-28T19:32:56.117Z,72.10
2022-08-28T19:35:24.453Z,72.10
2022-08-28T19:37:52.790Z,72.00
2022-08-28T19:40:20.908Z,71.90
2022-08-28T19:42:50.005Z,71.80
2022-08-28T19:45:18.401Z,71.90
2022-08-28T19:47:46.912Z,72.00
2022-08-28T19:50:14.624Z,72.00
2022-08-28T19:52:43.379Z,72.20
2022-08-28T19:55:18.209Z,72.20
2022-08-28T19:57:46.886Z,72.20
2022-08-28T20:00:17.818Z,72.10
2022-08-28T20:02:46.387Z,72.20
2022-08-28T20:05:13.674Z,72.00
2022-08-28T20:07:41.182Z,72.10
2022-08-28T20:10:08.849Z,72.20
2022-08-28T20:12:38.548Z,72.20
2022-08-28T20:15:08.775Z,72.10
2022-08-28T20:17:43.605Z,71.60
2022-08-28T20:20:11.785Z,71.00
2022-08-28T20:22:39.475Z,70.80
2022-08-28T20:25:08.448Z,70.80
2022-08-28T20:27:36.233Z,71.00
2022-08-28T20:30:10.815Z,71.00
2022-08-28T20:32:40.136Z,71.30
2022-08-28T20:35:09.504Z,71.50
2022-08-28T20:37:44.667Z,71.60
2022-08-28T20:40:15.944Z,71.60
2022-08-28T20:42:43.765Z,71.00
2022-08-28T20:45:12.940Z,71.30
2022-08-28T20:47:39.883Z,71.60
2022-08-28T20:50:07.873Z,71.80
2022-08-28T20:52:35.025Z,72.00
2022-08-28T20:55:02.605Z,72.30
2022-08-28T20:57:29.638Z,72.50
2022-08-28T20:59:56.691Z,72.80
2022-08-28T21:02:27.267Z,73.10
2022-08-28T21:04:55.333Z,73.30
2022-08-28T21:07:25.237Z,73.40
2022-08-28T21:10:05.204Z,73.50
2022-08-28T21:12:36.344Z,73.70
2022-08-28T21:15:05.076Z,73.60
2022-08-28T21:17:32.139Z,73.60
2022-08-28T21:20:05.600Z,73.70
2022-08-28T21:22:35.164Z,74.40
2022-08-28T21:25:03.829Z,75.10
2022-08-28T21:27:30.774Z,75.90
2022-08-28T21:29:59.200Z,76.60
2022-08-28T21:32:27.376Z,77.30
2022-08-28T21:34:55.217Z,77.70
2022-08-28T21:37:23.098Z,78.40
2022-08-28T21:39:50.799Z,79.10
2022-08-28T21:42:18.064Z,79.50
2022-08-28T21:44:51.528Z,80.00
2022-08-28T21:47:23.920Z,80.40
2022-08-28T21:49:53.254Z,80.70
2022-08-28T21:52:21.980Z,81.00
2022-08-28T21:54:49.546Z,81.60
2022-08-28T21:57:17.672Z,82.20
2022-08-28T21:59:44.679Z,82.80
2022-08-28T22:02:11.725Z,83.70
2022-08-28T22:04:38.801Z,84.50
2022-08-28T22:07:06.572Z,85.30
2022-08-28T22:09:33.528Z,85.90
2022-08-28T22:12:00.648Z,86.60
2022-08-28T22:14:28.536Z,87.10
2022-08-28T22:16:55.737Z,87.60
2022-08-28T22:19:22.918Z,87.80
2022-08-28T22:22:09.011Z,88.00
2022-08-28T22:24:36.636Z,87.80
2022-08-28T22:27:05.050Z,87.80
2022-08-28T22:29:36.461Z,88.30
2022-08-28T22:32:05.440Z,88.50
2022-08-28T22:34:42.069Z,88.90
2022-08-28T22:37:11.598Z,89.40
2022-08-28T22:39:39.751Z,89.80
2022-08-28T22:42:07.155Z,90.10
2022-08-28T22:44:34.496Z,90.20
2022-08-28T22:47:01.453Z,90.50
2022-08-28T22:49:28.420Z,90.50
2022-08-28T22:51:55.390Z,90.50
2022-08-28T22:54:22.373Z,90.30
2022-08-28T22:56:49.351Z,90.40
2022-08-28T22:59:17.175Z,90.50
2022-08-28T23:01:44.271Z,90.60
2022-08-28T23:04:11.996Z,90.60
2022-08-28T23:06:40.343Z,90.40
2022-08-28T23:09:08.375Z,90.30
2022-08-28T23:11:36.491Z,90.50
2022-08-28T23:14:05.088Z,90.80
2022-08-28T23:16:32.463Z,90.90
2022-08-28T23:19:09.633Z,91.00
2022-08-28T23:21:43.783Z,91.10
2022-08-28T23:24:12.576Z,91.10
2022-08-28T23:26:39.640Z,91.10
2022-08-28T23:29:06.643Z,91.00
2022-08-28T23:31:33.743Z,90.90
2022-08-28T23:34:00.714Z,91.00
2022-08-28T23:36:27.781Z,91.00
2022-08-28T23:38:54.779Z,91.10
2022-08-28T23:41:22.101Z,91.10
2022-08-28T23:43:49.064Z,91.20
2022-08-28T23:46:17.961Z,91.30
2022-08-28T23:48:45.306Z,91.40
2022-08-28T23:51:17.008Z,91.60
2022-08-28T23:53:44.268Z,91.80
2022-08-28T23:56:11.515Z,92.10
2022-08-28T23:58:43.253Z,92.30
